Time;durP1;ratioP1;P1;durP2;ratioP2;P2;SDS_P1;SDS_P2;PMS_P1;PMS_P2;Temp;Humidity;BMP_temperature;BMP_pressure;BME280_temperature;BME280_humidity;BME280_pressure;Samples;Min_cycle;Max_cycle;Signal;HPM_P1;HPM_P2
2022/08/11 00:01:05;;;;;;;3.40;2.10;;;;;;;;;;5132773;27;20625;-58
2022/08/11 00:03:32;;;;;;;2.93;2.10;;;;;;;;;;5132836;27;20197;-58
2022/08/11 00:05:58;;;;;;;2.30;2.10;;;;;;;;;;5132842;28;20196;-58
2022/08/11 00:08:27;;;;;;;2.83;2.30;;;;;;;;;;5132538;28;20745;-58
2022/08/11 00:10:54;;;;;;;3.80;2.10;;;;;;;;;;5132551;28;20296;-58
2022/08/11 00:13:21;;;;;;;2.97;2.10;;;;;;;;;;5132623;28;20261;-58
2022/08/11 00:15:47;;;;;;;2.20;2.00;;;;;;;;;;5132480;28;20581;-58
2022/08/11 00:18:14;;;;;;;5.57;2.47;;;;;;;;;;5132469;27;20204;-58
2022/08/11 00:20:41;;;;;;;2.80;2.20;;;;;;;;;;5132657;28;20640;-58
2022/08/11 00:23:08;;;;;;;2.83;2.07;;;;;;;;;;5132398;28;20665;-58
2022/08/11 00:25:39;;;;;;;3.83;2.30;;;;;;;;;;5132477;28;20197;-58
2022/08/11 00:28:22;;;;;;;3.93;2.00;;;;;;;;;;5132412;28;20193;-58
2022/08/11 00:30:48;;;;;;;3.67;2.77;;;;;;;;;;5132449;28;20243;-58
2022/08/11 00:33:15;;;;;;;2.33;2.03;;;;;;;;;;5132423;28;20196;-58
2022/08/11 00:35:41;;;;;;;2.80;2.17;;;;;;;;;;5132458;28;20201;-58
2022/08/11 00:38:07;;;;;;;3.27;2.23;;;;;;;;;;5132298;28;20236;-58
2022/08/11 00:40:37;;;;;;;2.30;2.10;;;;;;;;;;5132329;27;20266;-57
2022/08/11 00:43:12;;;;;;;2.40;2.20;;;;;;;;;;5132200;27;20296;-57
2022/08/11 00:45:40;;;;;;;2.33;2.03;;;;;;;;;;5134524;27;20318;-57
2022/08/11 00:48:09;;;;;;;3.07;2.13;;;;;;;;;;5136207;27;20193;-57
2022/08/11 00:50:41;;;;;;;3.47;2.00;;;;;;;;;;5136334;27;20196;-57
2022/08/11 00:53:12;;;;;;;3.63;2.40;;;;;;;;;;5136076;27;20200;-57
2022/08/11 00:55:54;;;;;;;3.57;2.47;;;;;;;;;;5136218;27;20250;-57
2022/08/11 00:58:35;;;;;;;5.43;2.60;;;;;;;;;;5136095;27;20197;-57
2022/08/11 01:01:08;;;;;;;3.30;2.30;;;;;;;;;;5136097;27;20268;-57
2022/08/11 01:03:42;;;;;;;3.73;2.30;;;;;;;;;;5136070;27;20560;-57
2022/08/11 01:06:28;;;;;;;3.30;2.37;;;;;;;;;;5136041;27;20562;-57
2022/08/11 01:09:08;;;;;;;4.30;2.10;;;;;;;;;;5135715;27;20236;-57
2022/08/11 01:11:45;;;;;;;2.87;2.20;;;;;;;;;;5135908;27;20211;-57
2022/08/11 01:14:25;;;;;;;2.40;2.17;;;;;;;;;;5135861;27;20248;-57
2022/08/11 01:17:04;;;;;;;2.97;2.10;;;;;;;;;;5135579;27;20195;-57
2022/08/11 01:19:50;;;;;;;3.17;2.60;;;;;;;;;;5135669;27;20227;-57
2022/08/11 01:22:41;;;;;;;3.13;2.30;;;;;;;;;;5135646;27;20730;-57
2022/08/11 01:25:36;;;;;;;3.57;2.20;;;;;;;;;;5109880;27;20604;-57
2022/08/11 01:28:21;;;;;;;4.30;2.47;;;;;;;;;;5135538;27;20211;-57
2022/08/11 01:31:05;;;;;;;2.73;2.03;;;;;;;;;;5135657;27;20564;-57
2022/08/11 01:33:50;;;;;;;2.97;2.73;;;;;;;;;;5135505;27;20589;-57
2022/08/11 01:36:31;;;;;;;2.20;2.00;;;;;;;;;;5135433;27;20290;-57
2022/08/11 01:39:17;;;;;;;2.40;2.20;;;;;;;;;;5113883;27;20261;-57
2022/08/11 01:45:10;;;;;;;4.17;2.30;;;;;;;;;;5088503;27;20228;-57
2022/08/11 01:47:51;;;;;;;5.87;2.73;;;;;;;;;;5131200;27;20211;-57
2022/08/11 01:50:23;;;;;;;2.67;2.47;;;;;;;;;;5135057;27;20219;-57
2022/08/11 01:53:00;;;;;;;4.00;2.40;;;;;;;;;;5134945;27;20691;-57
2022/08/11 01:55:29;;;;;;;2.90;2.20;;;;;;;;;;5134779;27;20221;-57
2022/08/11 01:58:01;;;;;;;3.53;2.70;;;;;;;;;;5135101;27;20199;-57
2022/08/11 02:00:29;;;;;;;2.93;2.33;;;;;;;;;;5135025;27;20227;-57
2022/08/11 02:03:00;;;;;;;2.33;2.13;;;;;;;;;;5134766;27;20257;-57
2022/08/11 02:05:28;;;;;;;2.53;2.23;;;;;;;;;;5134788;27;20192;-57
2022/08/11 02:07:58;;;;;;;5.00;2.30;;;;;;;;;;5134672;27;20256;-57
2022/08/11 02:13:15;;;;;;;3.60;2.53;;;;;;;;;;5134660;27;20266;-57
2022/08/11 02:15:44;;;;;;;2.77;2.57;;;;;;;;;;5134583;27;20239;-57
2022/08/11 02:18:13;;;;;;;2.60;2.40;;;;;;;;;;5134459;27;20212;-57
2022/08/11 02:25:59;;;;;;;3.97;2.70;;;;;;;;;;5134364;27;20246;-57
2022/08/11 02:28:29;;;;;;;3.07;2.33;;;;;;;;;;5134325;27;20199;-57
2022/08/11 02:33:48;;;;;;;4.63;2.60;;;;;;;;;;5134279;27;20305;-57
2022/08/11 02:36:19;;;;;;;4.00;2.47;;;;;;;;;;5134089;27;20202;-57
2022/08/11 02:38:49;;;;;;;2.50;2.30;;;;;;;;;;5134191;27;20237;-57
2022/08/11 02:44:16;;;;;;;3.13;2.60;;;;;;;;;;5133927;27;20190;-58
2022/08/11 02:46:48;;;;;;;2.60;2.40;;;;;;;;;;5134028;27;20195;-57
2022/08/11 02:52:05;;;;;;;2.93;2.30;;;;;;;;;;5133942;27;20185;-57
2022/08/11 02:54:37;;;;;;;3.23;2.50;;;;;;;;;;5133951;27;20195;-57
2022/08/11 02:57:05;;;;;;;5.63;3.03;;;;;;;;;;5133758;27;20205;-57
2022/08/11 02:59:52;;;;;;;4.40;2.70;;;;;;;;;;5133777;27;20312;-57
2022/08/11 03:02:39;;;;;;;6.10;2.53;;;;;;;;;;5133816;27;20204;-57
2022/08/11 03:05:13;;;;;;;4.37;2.70;;;;;;;;;;5133413;27;20756;-57
2022/08/11 03:07:48;;;;;;;2.70;2.50;;;;;;;;;;5132714;27;20252;-57
2022/08/11 03:10:20;;;;;;;2.90;2.53;;;;;;;;;;5133728;27;20280;-57
2022/08/11 03:18:34;;;;;;;3.90;2.47;;;;;;;;;;5133376;27;20216;-57
2022/08/11 03:21:04;;;;;;;4.37;2.73;;;;;;;;;;5133360;27;20230;-57
2022/08/11 03:23:39;;;;;;;5.27;2.70;;;;;;;;;;5133431;27;20290;-57
2022/08/11 03:26:08;;;;;;;3.43;2.50;;;;;;;;;;5133306;27;20197;-57
2022/08/11 03:28:39;;;;;;;2.77;2.50;;;;;;;;;;5133177;27;20198;-57
2022/08/11 03:31:09;;;;;;;4.87;2.97;;;;;;;;;;5133012;27;20200;-57
2022/08/11 03:36:36;;;;;;;8.03;2.83;;;;;;;;;;5133110;27;20238;-57
2022/08/11 03:39:08;;;;;;;3.73;2.80;;;;;;;;;;5132896;27;20233;-57
2022/08/11 03:41:43;;;;;;;3.50;3.03;;;;;;;;;;5133008;27;20217;-57
2022/08/11 03:44:14;;;;;;;3.33;3.03;;;;;;;;;;5132764;27;20683;-56
2022/08/11 03:46:54;;;;;;;3.83;3.17;;;;;;;;;;5132938;27;20201;-57
2022/08/11 03:49:30;;;;;;;2.90;2.70;;;;;;;;;;5132989;27;20254;-56
2022/08/11 03:52:01;;;;;;;3.17;2.87;;;;;;;;;;5132760;27;20207;-57
2022/08/11 03:54:32;;;;;;;5.20;3.27;;;;;;;;;;5132914;27;20197;-58
2022/08/11 03:57:08;;;;;;;4.87;3.20;;;;;;;;;;5132714;27;20194;-57
2022/08/11 04:00:01;;;;;;;4.23;3.30;;;;;;;;;;5132695;27;20304;-58
2022/08/11 04:02:38;;;;;;;3.93;3.20;;;;;;;;;;5132688;27;20201;-56
2022/08/11 04:05:26;;;;;;;7.07;3.03;;;;;;;;;;5132449;27;20657;-56
2022/08/11 04:08:12;;;;;;;3.93;3.50;;;;;;;;;;5132611;27;20239;-57
2022/08/11 04:11:02;;;;;;;4.07;3.00;;;;;;;;;;5132709;28;20194;-62
2022/08/11 04:13:50;;;;;;;3.53;3.20;;;;;;;;;;5116702;28;20226;-57
2022/08/11 04:16:29;;;;;;;4.77;3.27;;;;;;;;;;5132644;27;20695;-57
2022/08/11 04:19:13;;;;;;;4.37;3.10;;;;;;;;;;5132313;27;20217;-57
2022/08/11 04:21:50;;;;;;;5.87;3.63;;;;;;;;;;5136786;27;20190;-58
2022/08/11 04:24:27;;;;;;;6.20;3.20;;;;;;;;;;5136975;27;20295;-57
2022/08/11 04:27:06;;;;;;;5.43;3.03;;;;;;;;;;5136648;27;20451;-58
2022/08/11 04:29:40;;;;;;;3.53;3.20;;;;;;;;;;5136762;27;20185;-57
2022/08/11 04:32:15;;;;;;;3.70;3.30;;;;;;;;;;5136558;27;20278;-58
2022/08/11 04:34:50;;;;;;;4.17;3.10;;;;;;;;;;5136485;27;20201;-57
2022/08/11 04:37:33;;;;;;;6.00;3.43;;;;;;;;;;5136569;27;20726;-57
2022/08/11 04:40:17;;;;;;;4.53;3.20;;;;;;;;;;5136344;27;20226;-58
2022/08/11 04:43:20;;;;;;;3.60;3.30;;;;;;;;;;5085471;27;20208;-57
2022/08/11 04:46:01;;;;;;;6.07;3.60;;;;;;;;;;5136335;27;20208;-57
2022/08/11 05:03:29;;;;;;;3.90;3.00;;;;;;;;;;5136099;27;20188;-57
2022/08/11 05:06:14;;;;;;;5.23;3.40;;;;;;;;;;5135902;27;20295;-57
2022/08/11 05:08:49;;;;;;;3.30;3.00;;;;;;;;;;5135782;27;20294;-57
2022/08/11 05:11:28;;;;;;;3.40;2.90;;;;;;;;;;5136022;27;20212;-57
2022/08/11 05:36:23;;;;;;;4.57;2.57;;;;;;;;;;5135379;27;20200;-57
2022/08/11 05:58:09;;;;;;;5.17;3.00;;;;;;;;;;5134959;27;20220;-57
2022/08/11 06:00:42;;;;;;;4.93;2.80;;;;;;;;;;5134791;27;20223;-57
2022/08/11 06:03:09;;;;;;;4.43;2.70;;;;;;;;;;5134681;27;20560;-57
2022/08/11 06:05:36;;;;;;;2.60;2.40;;;;;;;;;;5134735;27;20671;-57
2022/08/11 06:08:03;;;;;;;6.03;2.93;;;;;;;;;;5134482;27;20240;-57
2022/08/11 06:10:32;;;;;;;3.60;2.60;;;;;;;;;;5134830;27;20549;-57
2022/08/11 06:12:59;;;;;;;4.40;2.80;;;;;;;;;;5134690;27;20216;-57
2022/08/11 06:15:26;;;;;;;6.77;2.90;;;;;;;;;;5134681;27;20564;-57
2022/08/11 06:17:54;;;;;;;4.50;2.67;;;;;;;;;;5134382;27;20197;-57
2022/08/11 06:20:22;;;;;;;3.83;2.60;;;;;;;;;;5134297;27;20225;-57
2022/08/11 06:22:57;;;;;;;5.13;3.00;;;;;;;;;;5134495;27;20201;-57
2022/08/11 06:25:29;;;;;;;3.70;2.50;;;;;;;;;;5134355;27;20701;-57
2022/08/11 06:27:56;;;;;;;4.30;2.70;;;;;;;;;;5134280;27;20198;-57
2022/08/11 06:30:33;;;;;;;4.83;2.40;;;;;;;;;;5134386;27;20414;-57
2022/08/11 06:33:01;;;;;;;6.73;2.40;;;;;;;;;;5134276;27;20567;-57
2022/08/11 06:35:35;;;;;;;3.40;2.27;;;;;;;;;;5134231;27;20290;-57
2022/08/11 06:38:05;;;;;;;5.43;2.20;;;;;;;;;;5134177;27;20199;-57
2022/08/11 06:40:35;;;;;;;2.63;2.10;;;;;;;;;;5134293;27;20226;-57
2022/08/11 06:43:05;;;;;;;3.70;2.40;;;;;;;;;;5133133;27;20201;-57
2022/08/11 06:45:34;;;;;;;5.23;2.90;;;;;;;;;;5134065;27;20241;-57
2022/08/11 06:48:02;;;;;;;7.57;2.63;;;;;;;;;;5133959;27;20198;-57
2022/08/11 06:53:15;;;;;;;7.03;2.20;;;;;;;;;;5133941;27;20192;-57
2022/08/11 07:01:15;;;;;;;2.10;1.90;;;;;;;;;;5133837;27;20266;-58
2022/08/11 07:03:44;;;;;;;4.37;2.40;;;;;;;;;;5133618;27;20197;-56
2022/08/11 07:06:17;;;;;;;5.20;2.83;;;;;;;;;;5133484;27;20198;-59
2022/08/11 07:28:54;;;;;;;2.70;2.30;;;;;;;;;;5133487;27;20189;-57
2022/08/11 07:28:55;;;;;;;2.30;2.10;;;;;;;;;;5133260;27;20696;-58
2022/08/11 07:31:22;;;;;;;5.43;2.47;;;;;;;;;;5133055;27;20220;-58
2022/08/11 07:33:50;;;;;;;5.00;2.00;;;;;;;;;;5133122;27;20200;-58
2022/08/11 07:36:18;;;;;;;4.73;2.07;;;;;;;;;;5133088;27;20654;-58
2022/08/11 07:38:49;;;;;;;2.40;2.20;;;;;;;;;;5133253;27;20240;-58
2022/08/11 07:41:17;;;;;;;4.20;2.37;;;;;;;;;;5133079;27;20208;-58
2022/08/11 07:43:47;;;;;;;4.77;2.37;;;;;;;;;;5133004;27;20570;-58
2022/08/11 07:54:30;;;;;;;5.57;2.67;;;;;;;;;;5132705;27;20207;-58
2022/08/11 07:56:58;;;;;;;2.73;2.27;;;;;;;;;;5132690;27;20194;-58
2022/08/11 08:18:42;;;;;;;6.43;2.50;;;;;;;;;;5132638;27;20199;-58
2022/08/11 08:21:13;;;;;;;6.77;1.93;;;;;;;;;;5132137;28;20236;-58
2022/08/11 08:23:42;;;;;;;3.10;1.93;;;;;;;;;;5132442;27;20259;-58
2022/08/11 08:30:45;;;;;;;3.30;2.10;;;;;;;;;;5132439;27;20596;-59
2022/08/11 08:31:41;;;;;;;5.03;2.30;;;;;;;;;;5132288;28;20205;-57
2022/08/11 08:34:07;;;;;;;4.00;2.23;;;;;;;;;;5132172;27;20573;-57
2022/08/11 08:36:33;;;;;;;5.93;1.90;;;;;;;;;;5132387;27;20193;-57
2022/08/11 08:39:00;;;;;;;2.93;1.70;;;;;;;;;;5132316;27;20200;-57
2022/08/11 08:41:28;;;;;;;2.90;2.10;;;;;;;;;;5132370;27;20204;-58
2022/08/11 08:43:55;;;;;;;3.33;1.90;;;;;;;;;;5132187;27;20189;-58
2022/08/11 08:46:25;;;;;;;3.07;2.07;;;;;;;;;;5132356;27;20201;-58
2022/08/11 08:48:51;;;;;;;2.57;1.70;;;;;;;;;;5132039;27;20680;-58
2022/08/11 08:51:33;;;;;;;3.43;1.80;;;;;;;;;;5132149;28;20201;-58
2022/08/11 08:54:03;;;;;;;2.67;1.93;;;;;;;;;;5132182;28;20194;-58
2022/08/11 08:56:30;;;;;;;2.73;1.90;;;;;;;;;;5132396;27;20200;-58
2022/08/11 08:58:56;;;;;;;3.13;1.70;;;;;;;;;;5132129;27;20320;-58
2022/08/11 09:01:24;;;;;;;3.97;1.67;;;;;;;;;;5132156;27;20207;-59
2022/08/11 09:03:50;;;;;;;3.57;1.33;;;;;;;;;;5132118;28;20264;-59
2022/08/11 09:06:17;;;;;;;3.83;2.00;;;;;;;;;;5133755;27;20206;-58
2022/08/11 09:08:43;;;;;;;3.43;1.70;;;;;;;;;;5135848;27;20645;-58
2022/08/11 09:13:56;;;;;;;5.43;1.90;;;;;;;;;;5135677;27;20320;-58
2022/08/11 09:16:23;;;;;;;3.90;1.70;;;;;;;;;;5135759;27;20216;-58
2022/08/11 09:18:49;;;;;;;5.07;1.80;;;;;;;;;;5135645;27;20207;-58
2022/08/11 09:21:15;;;;;;;1.93;1.20;;;;;;;;;;5135613;27;20235;-58
2022/08/11 09:29:13;;;;;;;1.57;1.40;;;;;;;;;;5135602;27;20199;-58
2022/08/11 09:31:40;;;;;;;5.03;1.60;;;;;;;;;;5135465;27;20202;-58
2022/08/11 09:34:06;;;;;;;2.67;1.57;;;;;;;;;;5135224;27;20194;-59
2022/08/11 09:42:04;;;;;;;3.87;1.43;;;;;;;;;;5135356;27;20193;-59
2022/08/11 09:44:49;;;;;;;3.53;1.20;;;;;;;;;;5135311;27;20345;-58
2022/08/11 09:47:19;;;;;;;1.87;1.30;;;;;;;;;;5135123;27;20195;-58
2022/08/11 09:49:47;;;;;;;3.83;1.40;;;;;;;;;;5135181;27;20563;-58
2022/08/11 09:52:14;;;;;;;1.93;1.40;;;;;;;;;;5135080;27;20789;-59
2022/08/11 09:54:40;;;;;;;4.47;1.40;;;;;;;;;;5135085;27;20192;-59
2022/08/11 09:59:53;;;;;;;3.07;1.17;;;;;;;;;;5134895;27;20231;-59
2022/08/11 10:02:23;;;;;;;1.33;1.23;;;;;;;;;;5134754;27;20196;-59
2022/08/11 10:04:50;;;;;;;1.77;1.30;;;;;;;;;;5134778;27;20204;-59
2022/08/11 10:07:18;;;;;;;2.53;1.30;;;;;;;;;;5134563;27;20233;-59
2022/08/11 10:09:47;;;;;;;3.80;1.40;;;;;;;;;;5134799;27;20238;-59
2022/08/11 10:12:19;;;;;;;2.97;1.47;;;;;;;;;;5134753;27;20257;-58
2022/08/11 10:17:35;;;;;;;1.30;1.20;;;;;;;;;;5134556;27;20191;-60
2022/08/11 10:20:06;;;;;;;3.53;1.60;;;;;;;;;;5134392;27;20639;-60
2022/08/11 10:28:07;;;;;;;3.33;1.43;;;;;;;;;;5134476;27;20665;-60
2022/08/11 10:36:05;;;;;;;2.73;1.50;;;;;;;;;;5134064;27;20215;-58
2022/08/11 10:38:31;;;;;;;2.90;1.50;;;;;;;;;;5134105;27;20209;-61
2022/08/11 10:43:43;;;;;;;2.03;1.43;;;;;;;;;;5134227;27;20670;-58
2022/08/11 10:48:55;;;;;;;2.73;1.40;;;;;;;;;;5133747;27;20204;-58
2022/08/11 10:59:41;;;;;;;5.20;1.40;;;;;;;;;;5133717;27;20261;-58
2022/08/11 11:02:07;;;;;;;3.07;1.70;;;;;;;;;;5133611;27;20223;-58
2022/08/11 11:04:46;;;;;;;3.57;1.50;;;;;;;;;;5133618;27;20198;-58
2022/08/11 11:07:19;;;;;;;1.50;1.10;;;;;;;;;;5133766;27;20228;-58
2022/08/11 11:09:47;;;;;;;1.40;1.30;;;;;;;;;;5133792;27;20190;-58
2022/08/11 11:17:55;;;;;;;1.87;1.37;;;;;;;;;;5133425;27;20216;-59
2022/08/11 11:20:23;;;;;;;6.97;1.60;;;;;;;;;;5133236;27;20221;-58
2022/08/11 11:22:51;;;;;;;3.87;1.47;;;;;;;;;;5133251;27;20268;-59
2022/08/11 11:25:22;;;;;;;1.80;1.63;;;;;;;;;;5133446;27;20271;-59
2022/08/11 11:27:54;;;;;;;4.73;1.33;;;;;;;;;;5133326;27;20614;-59
2022/08/11 11:30:24;;;;;;;5.23;1.40;;;;;;;;;;5132756;27;20213;-59
2022/08/11 11:32:58;;;;;;;2.03;1.40;;;;;;;;;;5133043;27;20286;-58
2022/08/11 11:35:35;;;;;;;2.70;1.40;;;;;;;;;;5133064;27;20249;-60
2022/08/11 11:38:02;;;;;;;1.67;1.20;;;;;;;;;;5133160;27;20209;-59
2022/08/11 11:40:28;;;;;;;3.08;1.40;;;;;;;;;;5131903;27;20411;-59
2022/08/11 11:42:57;;;;;;;2.07;1.50;;;;;;;;;;5133053;27;20274;-59
2022/08/11 11:45:24;;;;;;;4.70;1.42;;;;;;;;;;5131814;27;20417;-59
2022/08/11 11:47:51;;;;;;;6.47;1.60;;;;;;;;;;5131709;27;20440;-60
2022/08/11 11:50:22;;;;;;;3.40;1.53;;;;;;;;;;5131722;27;20382;-59
2022/08/11 11:52:49;;;;;;;3.00;1.60;;;;;;;;;;5131790;27;20888;-59
2022/08/11 11:55:17;;;;;;;4.18;1.55;;;;;;;;;;5131679;27;20398;-59
2022/08/11 12:03:15;;;;;;;2.30;1.42;;;;;;;;;;5131674;27;20745;-60
2022/08/11 12:05:42;;;;;;;2.78;1.40;;;;;;;;;;5131559;27;20406;-59
2022/08/11 12:08:12;;;;;;;2.45;1.48;;;;;;;;;;5131270;27;20811;-59
2022/08/11 12:10:39;;;;;;;3.27;1.50;;;;;;;;;;5131651;28;20452;-59
2022/08/11 12:15:51;;;;;;;4.18;1.38;;;;;;;;;;5131471;28;20382;-59
2022/08/11 12:18:18;;;;;;;3.38;1.48;;;;;;;;;;5131245;27;20417;-59
2022/08/11 12:20:44;;;;;;;6.03;2.00;;;;;;;;;;5131364;28;20776;-59
2022/08/11 12:28:42;;;;;;;3.70;1.50;;;;;;;;;;5131444;28;20911;-59
2022/08/11 12:31:10;;;;;;;3.30;1.50;;;;;;;;;;5131206;27;20393;-59
2022/08/11 12:33:36;;;;;;;2.63;1.50;;;;;;;;;;5131156;27;20403;-59
2022/08/11 12:36:02;;;;;;;2.30;1.58;;;;;;;;;;5131150;28;20433;-59
2022/08/11 12:38:29;;;;;;;1.92;1.40;;;;;;;;;;5131386;28;20749;-59
2022/08/11 12:46:32;;;;;;;2.92;1.40;;;;;;;;;;5135285;27;20382;-59
2022/08/11 12:51:58;;;;;;;3.55;1.50;;;;;;;;;;5135272;27;20475;-59
2022/08/11 12:54:27;;;;;;;3.85;1.73;;;;;;;;;;5134818;27;20391;-59
2022/08/11 13:05:14;;;;;;;5.10;1.50;;;;;;;;;;5134788;27;20432;-59
2022/08/11 13:07:41;;;;;;;3.08;1.50;;;;;;;;;;5134606;27;20411;-59
2022/08/11 13:10:09;;;;;;;4.28;1.65;;;;;;;;;;5134693;27;20467;-59
2022/08/11 13:12:48;;;;;;;6.25;1.65;;;;;;;;;;5134685;27;20398;-59
2022/08/11 13:15:15;;;;;;;2.40;1.50;;;;;;;;;;5134566;27;20395;-60
2022/08/11 13:17:43;;;;;;;2.87;1.60;;;;;;;;;;5134290;27;20394;-59
2022/08/11 13:20:11;;;;;;;2.90;1.50;;;;;;;;;;5134393;27;20434;-60
2022/08/11 13:22:37;;;;;;;5.20;1.67;;;;;;;;;;5134491;27;20395;-60
2022/08/11 13:25:04;;;;;;;5.32;1.63;;;;;;;;;;5134394;27;20865;-59
2022/08/11 13:27:30;;;;;;;1.70;1.40;;;;;;;;;;5134542;27;20402;-59
2022/08/11 13:32:44;;;;;;;4.10;1.60;;;;;;;;;;5134247;27;20486;-60
2022/08/11 13:35:11;;;;;;;4.20;1.70;;;;;;;;;;5134145;27;20395;-60
2022/08/11 13:37:38;;;;;;;3.22;1.60;;;;;;;;;;5134094;27;20411;-60
2022/08/11 13:40:04;;;;;;;5.50;1.60;;;;;;;;;;5133978;27;20422;-60
2022/08/11 13:42:30;;;;;;;2.40;1.60;;;;;;;;;;5134094;27;20394;-60
2022/08/11 13:44:57;;;;;;;4.63;1.50;;;;;;;;;;5133958;27;20451;-60
2022/08/11 13:47:23;;;;;;;2.85;1.60;;;;;;;;;;5133849;27;20395;-59
2022/08/11 13:49:51;;;;;;;2.70;1.42;;;;;;;;;;5133921;27;20485;-59
2022/08/11 13:52:18;;;;;;;1.92;1.30;;;;;;;;;;5133438;27;20651;-60
2022/08/11 13:54:46;;;;;;;2.85;1.50;;;;;;;;;;5131539;27;20393;-60
2022/08/11 13:57:14;;;;;;;2.90;1.40;;;;;;;;;;5133485;27;20405;-60
2022/08/11 13:59:41;;;;;;;2.70;1.52;;;;;;;;;;5131367;27;20750;-60
2022/08/11 14:02:09;;;;;;;4.10;1.60;;;;;;;;;;5132895;27;20447;-60
2022/08/11 14:04:38;;;;;;;2.83;1.40;;;;;;;;;;5131510;27;20435;-60
2022/08/11 14:07:07;;;;;;;3.55;1.60;;;;;;;;;;5132435;27;20775;-59
2022/08/11 14:09:36;;;;;;;2.83;1.50;;;;;;;;;;5131552;27;20406;-59
2022/08/11 14:14:54;;;;;;;2.30;1.50;;;;;;;;;;5133550;27;20390;-60
2022/08/11 14:17:21;;;;;;;3.10;1.50;;;;;;;;;;5133203;27;20733;-59
2022/08/11 14:19:49;;;;;;;6.22;1.88;;;;;;;;;;5133740;27;20489;-59
2022/08/11 14:22:17;;;;;;;3.08;1.80;;;;;;;;;;5133411;27;20433;-59
2022/08/11 14:24:48;;;;;;;1.80;1.48;;;;;;;;;;5133304;27;20885;-60
2022/08/11 14:27:14;;;;;;;2.73;1.63;;;;;;;;;;5133411;27;20394;-60
2022/08/11 14:29:41;;;;;;;1.65;1.48;;;;;;;;;;5130900;27;20437;-60
2022/08/11 14:32:08;;;;;;;4.18;1.67;;;;;;;;;;5132707;27;20398;-60
2022/08/11 14:34:35;;;;;;;2.22;1.50;;;;;;;;;;5132944;27;20418;-60
2022/08/11 14:37:03;;;;;;;2.00;1.58;;;;;;;;;;5132447;27;20394;-60
2022/08/11 14:39:34;;;;;;;2.47;1.40;;;;;;;;;;5132547;27;20428;-60
2022/08/11 14:47:45;;;;;;;4.00;1.63;;;;;;;;;;5132612;27;20787;-59
2022/08/11 14:50:12;;;;;;;3.97;1.42;;;;;;;;;;5129852;27;20395;-58
2022/08/11 14:52:42;;;;;;;2.40;1.60;;;;;;;;;;5132361;27;20405;-60
2022/08/11 14:57:55;;;;;;;2.87;1.30;;;;;;;;;;5131209;27;20390;-60
2022/08/11 15:00:21;;;;;;;3.10;1.50;;;;;;;;;;5131872;27;20418;-58
2022/08/11 15:05:33;;;;;;;1.77;1.30;;;;;;;;;;5130600;27;20818;-60
2022/08/11 15:08:00;;;;;;;3.28;1.50;;;;;;;;;;5132047;27;20449;-58
2022/08/11 15:10:28;;;;;;;4.85;1.50;;;;;;;;;;5131993;27;20861;-58
2022/08/11 15:12:54;;;;;;;2.10;1.35;;;;;;;;;;5131600;27;20445;-58
2022/08/11 15:18:06;;;;;;;1.52;1.35;;;;;;;;;;5131604;27;20382;-60
2022/08/11 15:26:06;;;;;;;2.20;1.50;;;;;;;;;;5131669;27;20385;-60
2022/08/11 15:45:46;;;;;;;1.70;1.37;;;;;;;;;;5129555;27;20390;-60
2022/08/11 15:48:07;;;;;;;2.05;1.33;;;;;;;;;;5131699;27;20382;-60
2022/08/11 15:50:38;;;;;;;3.22;1.48;;;;;;;;;;5130255;27;20391;-63
2022/08/11 15:53:08;;;;;;;3.72;1.50;;;;;;;;;;5131485;27;20403;-62
2022/08/11 15:55:34;;;;;;;1.77;1.23;;;;;;;;;;5131272;27;20398;-62
2022/08/11 16:06:25;;;;;;;2.83;1.60;;;;;;;;;;5131390;28;20378;-62
2022/08/11 16:08:52;;;;;;;3.60;1.85;;;;;;;;;;5130815;27;20406;-62
2022/08/11 16:11:19;;;;;;;2.35;1.55;;;;;;;;;;5130936;27;20406;-60
2022/08/11 16:16:32;;;;;;;3.35;1.50;;;;;;;;;;5136906;27;20397;-62
2022/08/11 16:18:59;;;;;;;3.22;1.50;;;;;;;;;;5137926;27;20438;-63
2022/08/11 16:21:26;;;;;;;3.20;1.73;;;;;;;;;;5137870;27;20480;-62
2022/08/11 16:23:54;;;;;;;3.00;1.60;;;;;;;;;;5137933;27;20398;-61
2022/08/11 16:26:22;;;;;;;1.90;1.60;;;;;;;;;;5137748;27;20439;-61
2022/08/11 16:28:50;;;;;;;3.42;1.88;;;;;;;;;;5137954;27;20401;-62
2022/08/11 16:31:16;;;;;;;2.42;1.60;;;;;;;;;;5137773;27;20406;-62
2022/08/11 16:33:43;;;;;;;3.42;1.67;;;;;;;;;;5137913;27;20401;-61
2022/08/11 16:38:54;;;;;;;3.83;1.80;;;;;;;;;;5137917;27;20389;-62
2022/08/11 16:49:25;;;;;;;2.17;1.70;;;;;;;;;;5137474;27;20411;-61
2022/08/11 16:51:51;;;;;;;1.90;1.70;;;;;;;;;;5137505;27;20406;-61
2022/08/11 16:54:17;;;;;;;2.05;1.50;;;;;;;;;;5137549;27;20397;-62
2022/08/11 16:56:46;;;;;;;3.10;1.70;;;;;;;;;;5139011;27;20193;-61
2022/08/11 16:59:16;;;;;;;1.43;1.33;;;;;;;;;;5138797;27;20198;-61
2022/08/11 17:01:44;;;;;;;1.80;1.60;;;;;;;;;;5138485;27;20842;-61
2022/08/11 17:18:38;;;;;;;3.60;1.80;;;;;;;;;;5138477;27;20686;-60
2022/08/11 17:20:59;;;;;;;2.90;1.70;;;;;;;;;;5138194;27;20233;-60
2022/08/11 17:26:09;;;;;;;6.10;1.90;;;;;;;;;;5136028;27;20186;-61
2022/08/11 17:28:36;;;;;;;3.47;1.73;;;;;;;;;;5134971;27;20315;-61
2022/08/11 17:36:35;;;;;;;3.33;1.80;;;;;;;;;;5134699;27;20208;-61
2022/08/11 17:39:01;;;;;;;1.87;1.70;;;;;;;;;;5134652;27;20202;-62
2022/08/11 17:49:43;;;;;;;3.40;1.70;;;;;;;;;;5135226;27;20218;-60
2022/08/11 18:00:25;;;;;;;2.00;1.70;;;;;;;;;;5134340;27;20757;-60
2022/08/11 18:05:42;;;;;;;3.50;2.13;;;;;;;;;;5134680;27;20236;-60
